sensor_id;sensor_type;location;lat;lon;timestamp;pressure;altitude;pressure_sealevel;temperature;humidity
65666;BME280;52365;47.464;18.976;2023-09-18T00:00:04;100082.97;;;23.42;57.70
65666;BME280;52365;47.464;18.976;2023-09-18T00:00:34;100079.62;;;23.36;57.80
65666;BME280;52365;47.464;18.976;2023-09-18T00:00:56;100078.69;;;23.54;57.30
65666;BME280;52365;47.464;18.976;2023-09-18T00:01:18;100074.34;;;23.59;57.18
65666;BME280;52365;47.464;18.976;2023-09-18T00:01:40;100067.91;;;23.77;56.72
65666;BME280;52365;47.464;18.976;2023-09-18T00:02:01;100075.03;;;23.94;56.20
65666;BME280;52365;47.464;18.976;2023-09-18T00:02:22;100072.25;;;24.15;55.55
65666;BME280;52365;47.464;18.976;2023-09-18T00:02:43;100077.59;;;24.20;55.21
65666;BME280;52365;47.464;18.976;2023-09-18T00:03:04;100071.97;;;24.33;54.88
65666;BME280;52365;47.464;18.976;2023-09-18T00:03:25;100077.59;;;24.49;54.38
65666;BME280;52365;47.464;18.976;2023-09-18T00:03:46;100076.69;;;24.54;54.07
65666;BME280;52365;47.464;18.976;2023-09-18T00:04:02;100069.94;;;24.62;53.89
65666;BME280;52365;47.464;18.976;2023-09-18T00:04:24;100076.44;;;24.73;53.61
65666;BME280;52365;47.464;18.976;2023-09-18T00:04:45;100073.69;;;24.73;53.49
65666;BME280;52365;47.464;18.976;2023-09-18T00:05:01;100073.34;;;24.76;53.46
65666;BME280;52365;47.464;18.976;2023-09-18T00:05:22;100076.66;;;24.82;53.28
65666;BME280;52365;47.464;18.976;2023-09-18T00:05:43;100074.03;;;24.69;53.40
65666;BME280;52365;47.464;18.976;2023-09-18T00:06:04;100069.59;;;24.58;53.66
65666;BME280;52365;47.464;18.976;2023-09-18T00:06:20;100074.06;;;24.41;54.08
65666;BME280;52365;47.464;18.976;2023-09-18T00:06:44;100070.47;;;24.25;54.55
65666;BME280;52365;47.464;18.976;2023-09-18T00:07:05;100068.13;;;24.08;55.06
65666;BME280;52365;47.464;18.976;2023-09-18T00:07:21;100070.31;;;24.02;55.35
65666;BME280;52365;47.464;18.976;2023-09-18T00:07:42;100073.56;;;23.93;55.60
65666;BME280;52365;47.464;18.976;2023-09-18T00:08:04;100072.88;;;23.58;56.55
65666;BME280;52365;47.464;18.976;2023-09-18T00:08:25;100066.88;;;23.46;57.10
65666;BME280;52365;47.464;18.976;2023-09-18T00:08:46;100074.53;;;23.61;56.89
65666;BME280;52365;47.464;18.976;2023-09-18T00:09:08;100071.47;;;23.65;56.80
65666;BME280;52365;47.464;18.976;2023-09-18T00:09:32;100067.37;;;23.79;56.41
65666;BME280;52365;47.464;18.976;2023-09-18T00:09:53;100066.53;;;23.92;55.99
65666;BME280;52365;47.464;18.976;2023-09-18T00:10:14;100059.97;;;23.95;55.82
65666;BME280;52365;47.464;18.976;2023-09-18T00:10:35;100072.38;;;23.88;55.97
65666;BME280;52365;47.464;18.976;2023-09-18T00:10:56;100072.88;;;23.79;56.23
65666;BME280;52365;47.464;18.976;2023-09-18T00:11:17;100065.38;;;23.79;56.25
65666;BME280;52365;47.464;18.976;2023-09-18T00:11:39;100069.78;;;23.82;56.16
65666;BME280;52365;47.464;18.976;2023-09-18T00:12:00;100064.69;;;23.86;56.08
65666;BME280;52365;47.464;18.976;2023-09-18T00:12:21;100057.37;;;23.89;55.91
65666;BME280;52365;47.464;18.976;2023-09-18T00:12:42;100067.44;;;23.86;55.97
65666;BME280;52365;47.464;18.976;2023-09-18T00:12:58;100065.81;;;23.91;55.89
65666;BME280;52365;47.464;18.976;2023-09-18T00:13:20;100066.16;;;23.87;55.94
65666;BME280;52365;47.464;18.976;2023-09-18T00:13:41;100072.00;;;23.84;56.01
65666;BME280;52365;47.464;18.976;2023-09-18T00:14:03;100067.72;;;23.75;56.31
65666;BME280;52365;47.464;18.976;2023-09-18T00:14:24;100064.56;;;23.71;56.49
65666;BME280;52365;47.464;18.976;2023-09-18T00:14:49;100062.22;;;23.75;56.47
65666;BME280;52365;47.464;18.976;2023-09-18T00:15:06;100056.50;;;23.73;56.45
65666;BME280;52365;47.464;18.976;2023-09-18T00:15:30;100061.34;;;23.80;56.33
65666;BME280;52365;47.464;18.976;2023-09-18T00:15:55;100065.88;;;23.99;55.81
65666;BME280;52365;47.464;18.976;2023-09-18T00:16:16;100065.62;;;23.89;55.92
65666;BME280;52365;47.464;18.976;2023-09-18T00:16:37;100055.19;;;23.95;55.85
65666;BME280;52365;47.464;18.976;2023-09-18T00:16:59;100058.91;;;23.98;55.66
65666;BME280;52365;47.464;18.976;2023-09-18T00:17:21;100057.69;;;24.06;55.49
65666;BME280;52365;47.464;18.976;2023-09-18T00:17:43;100058.31;;;24.20;55.12
65666;BME280;52365;47.464;18.976;2023-09-18T00:18:04;100057.81;;;24.29;54.83
65666;BME280;52365;47.464;18.976;2023-09-18T00:18:26;100055.56;;;24.20;54.85
65666;BME280;52365;47.464;18.976;2023-09-18T00:18:47;100063.44;;;24.16;55.05
65666;BME280;52365;47.464;18.976;2023-09-18T00:19:08;100055.84;;;24.09;55.25
65666;BME280;52365;47.464;18.976;2023-09-18T00:19:29;100056.63;;;24.17;55.10
65666;BME280;52365;47.464;18.976;2023-09-18T00:19:52;100060.19;;;24.25;54.87
65666;BME280;52365;47.464;18.976;2023-09-18T00:20:13;100059.59;;;24.19;54.92
65666;BME280;52365;47.464;18.976;2023-09-18T00:20:34;100059.00;;;24.13;55.13
65666;BME280;52365;47.464;18.976;2023-09-18T00:20:56;100065.22;;;24.06;55.31
65666;BME280;52365;47.464;18.976;2023-09-18T00:21:12;100051.44;;;24.06;55.47
65666;BME280;52365;47.464;18.976;2023-09-18T00:21:34;100051.34;;;24.19;55.17
65666;BME280;52365;47.464;18.976;2023-09-18T00:21:55;100059.09;;;24.28;54.89
65666;BME280;52365;47.464;18.976;2023-09-18T00:22:12;100057.81;;;24.29;54.66
65666;BME280;52365;47.464;18.976;2023-09-18T00:22:33;100056.84;;;24.19;54.81
65666;BME280;52365;47.464;18.976;2023-09-18T00:22:54;100051.91;;;23.97;55.52
65666;BME280;52365;47.464;18.976;2023-09-18T00:23:16;100053.56;;;23.71;56.32
65666;BME280;52365;47.464;18.976;2023-09-18T00:23:37;100057.16;;;23.66;56.49
65666;BME280;52365;47.464;18.976;2023-09-18T00:23:58;100054.28;;;23.51;56.95
65666;BME280;52365;47.464;18.976;2023-09-18T00:24:19;100057.03;;;23.51;57.07
65666;BME280;52365;47.464;18.976;2023-09-18T00:24:40;100055.03;;;23.72;56.59
65666;BME280;52365;47.464;18.976;2023-09-18T00:25:01;100062.16;;;23.33;57.61
65666;BME280;52365;47.464;18.976;2023-09-18T00:25:18;100060.28;;;23.28;58.14
65666;BME280;52365;47.464;18.976;2023-09-18T00:25:39;100058.03;;;23.40;57.87
65666;BME280;52365;47.464;18.976;2023-09-18T00:26:03;100060.06;;;23.26;58.02
65666;BME280;52365;47.464;18.976;2023-09-18T00:26:25;100061.47;;;23.54;57.38
65666;BME280;52365;47.464;18.976;2023-09-18T00:26:47;100055.81;;;23.59;57.08
65666;BME280;52365;47.464;18.976;2023-09-18T00:27:08;100067.09;;;23.69;56.72
65666;BME280;52365;47.464;18.976;2023-09-18T00:27:31;100054.37;;;23.79;56.37
65666;BME280;52365;47.464;18.976;2023-09-18T00:27:53;100057.31;;;23.81;56.21
65666;BME280;52365;47.464;18.976;2023-09-18T00:28:14;100056.63;;;23.89;56.01
65666;BME280;52365;47.464;18.976;2023-09-18T00:28:35;100062.81;;;23.81;56.09
65666;BME280;52365;47.464;18.976;2023-09-18T00:28:56;100062.66;;;23.66;56.54
65666;BME280;52365;47.464;18.976;2023-09-18T00:29:17;100068.44;;;23.55;57.03
65666;BME280;52365;47.464;18.976;2023-09-18T00:29:38;100060.50;;;23.51;57.08
65666;BME280;52365;47.464;18.976;2023-09-18T00:29:59;100065.09;;;23.49;57.26
65666;BME280;52365;47.464;18.976;2023-09-18T00:30:20;100061.84;;;23.58;57.05
65666;BME280;52365;47.464;18.976;2023-09-18T00:30:49;100062.53;;;23.51;57.22
65666;BME280;52365;47.464;18.976;2023-09-18T00:31:10;100072.72;;;23.43;57.36
65666;BME280;52365;47.464;18.976;2023-09-18T00:31:31;100060.56;;;23.38;57.57
65666;BME280;52365;47.464;18.976;2023-09-18T00:31:52;100062.38;;;23.35;57.56
65666;BME280;52365;47.464;18.976;2023-09-18T00:32:13;100061.97;;;23.31;57.71
65666;BME280;52365;47.464;18.976;2023-09-18T00:32:34;100067.47;;;23.31;57.74
65666;BME280;52365;47.464;18.976;2023-09-18T00:32:55;100066.66;;;23.44;57.49
65666;BME280;52365;47.464;18.976;2023-09-18T00:33:16;100070.97;;;23.53;57.17
65666;BME280;52365;47.464;18.976;2023-09-18T00:33:39;100067.56;;;23.60;56.95
65666;BME280;52365;47.464;18.976;2023-09-18T00:34:01;100068.84;;;23.59;56.88
65666;BME280;52365;47.464;18.976;2023-09-18T00:34:21;100060.69;;;23.67;56.75
65666;BME280;52365;47.464;18.976;2023-09-18T00:34:43;100065.62;;;23.89;56.23
65666;BME280;52365;47.464;18.976;2023-09-18T00:35:04;100060.78;;;24.03;55.73
65666;BME280;52365;47.464;18.976;2023-09-18T00:35:25;100058.91;;;23.98;55.66
65666;BME280;52365;47.464;18.976;2023-09-18T00:35:50;100053.41;;;23.98;55.73
65666;BME280;52365;47.464;18.976;2023-09-18T00:36:11;100059.44;;;23.96;55.70
65666;BME280;52365;47.464;18.976;2023-09-18T00:36:33;100059.69;;;24.06;55.46
65666;BME280;52365;47.464;18.976;2023-09-18T00:36:49;100057.13;;;24.08;55.21
65666;BME280;52365;47.464;18.976;2023-09-18T00:37:10;100054.31;;;24.00;55.32
65666;BME280;52365;47.464;18.976;2023-09-18T00:37:32;100059.88;;;23.79;55.97
65666;BME280;52365;47.464;18.976;2023-09-18T00:37:53;100048.16;;;23.45;57.07
65666;BME280;52365;47.464;18.976;2023-09-18T00:38:15;100053.66;;;23.45;57.29
65666;BME280;52365;47.464;18.976;2023-09-18T00:38:36;100051.50;;;23.51;57.11
65666;BME280;52365;47.464;18.976;2023-09-18T00:38:57;100064.31;;;23.48;57.20
65666;BME280;52365;47.464;18.976;2023-09-18T00:39:18;100052.19;;;23.44;57.34
65666;BME280;52365;47.464;18.976;2023-09-18T00:39:41;100054.31;;;23.37;57.55
65666;BME280;52365;47.464;18.976;2023-09-18T00:40:02;100054.81;;;23.49;57.30
65666;BME280;52365;47.464;18.976;2023-09-18T00:40:20;100050.03;;;23.50;57.25
65666;BME280;52365;47.464;18.976;2023-09-18T00:40:41;100047.88;;;23.56;57.06
65666;BME280;52365;47.464;18.976;2023-09-18T00:41:03;100040.44;;;23.64;56.80
65666;BME280;52365;47.464;18.976;2023-09-18T00:41:19;100050.19;;;23.65;56.68
65666;BME280;52365;47.464;18.976;2023-09-18T00:41:40;100046.91;;;23.67;56.62
65666;BME280;52365;47.464;18.976;2023-09-18T00:42:01;100045.75;;;23.41;57.08
65666;BME280;52365;47.464;18.976;2023-09-18T00:42:18;100048.66;;;23.22;57.78
65666;BME280;52365;47.464;18.976;2023-09-18T00:42:39;100051.50;;;23.30;57.70
65666;BME280;52365;47.464;18.976;2023-09-18T00:43:00;100051.63;;;23.24;57.87
65666;BME280;52365;47.464;18.976;2023-09-18T00:43:16;100050.69;;;23.22;57.89
65666;BME280;52365;47.464;18.976;2023-09-18T00:43:38;100048.72;;;23.09;58.42
65666;BME280;52365;47.464;18.976;2023-09-18T00:43:59;100051.75;;;23.19;58.25
65666;BME280;52365;47.464;18.976;2023-09-18T00:44:21;100049.25;;;23.07;58.53
65666;BME280;52365;47.464;18.976;2023-09-18T00:44:42;100052.59;;;23.27;58.08
65666;BME280;52365;47.464;18.976;2023-09-18T00:45:04;100056.94;;;23.43;57.57
65666;BME280;52365;47.464;18.976;2023-09-18T00:45:25;100049.63;;;23.46;57.34
65666;BME280;52365;47.464;18.976;2023-09-18T00:45:47;100050.31;;;23.04;58.32
65666;BME280;52365;47.464;18.976;2023-09-18T00:46:04;100049.28;;;22.94;58.77
65666;BME280;52365;47.464;18.976;2023-09-18T00:46:25;100044.41;;;22.87;59.05
65666;BME280;52365;47.464;18.976;2023-09-18T00:46:48;100046.41;;;23.00;58.94
65666;BME280;52365;47.464;18.976;2023-09-18T00:47:09;100049.06;;;23.26;58.14
65666;BME280;52365;47.464;18.976;2023-09-18T00:47:31;100049.63;;;23.46;57.41
65666;BME280;52365;47.464;18.976;2023-09-18T00:47:53;100050.37;;;23.46;57.25
65666;BME280;52365;47.464;18.976;2023-09-18T00:48:15;100051.63;;;23.24;57.42
65666;BME280;52365;47.464;18.976;2023-09-18T00:48:37;100050.66;;;23.01;58.33
65666;BME280;52365;47.464;18.976;2023-09-18T00:48:58;100055.34;;;22.93;58.73
65666;BME280;52365;47.464;18.976;2023-09-18T00:49:19;100049.09;;;22.92;58.79
65666;BME280;52365;47.464;18.976;2023-09-18T00:49:43;100049.53;;;23.17;58.27
65666;BME280;52365;47.464;18.976;2023-09-18T00:50:07;100047.28;;;23.29;57.84
65666;BME280;52365;47.464;18.976;2023-09-18T00:50:30;100050.28;;;23.38;57.63
65666;BME280;52365;47.464;18.976;2023-09-18T00:50:48;100050.91;;;23.45;57.29
65666;BME280;52365;47.464;18.976;2023-09-18T00:51:09;100058.88;;;23.56;56.94
65666;BME280;52365;47.464;18.976;2023-09-18T00:51:26;100052.78;;;23.50;56.90
65666;BME280;52365;47.464;18.976;2023-09-18T00:51:47;100048.03;;;23.50;56.99
65666;BME280;52365;47.464;18.976;2023-09-18T00:52:09;100052.09;;;23.57;56.85
65666;BME280;52365;47.464;18.976;2023-09-18T00:52:31;100054.81;;;23.49;57.05
65666;BME280;52365;47.464;18.976;2023-09-18T00:52:53;100057.91;;;23.46;57.22
65666;BME280;52365;47.464;18.976;2023-09-18T00:53:17;100060.50;;;23.51;57.11
65666;BME280;52365;47.464;18.976;2023-09-18T00:53:43;100057.50;;;23.62;56.80
65666;BME280;52365;47.464;18.976;2023-09-18T00:54:01;100053.34;;;23.69;56.55
65666;BME280;52365;47.464;18.976;2023-09-18T00:54:22;100058.84;;;23.69;56.51
65666;BME280;52365;47.464;18.976;2023-09-18T00:54:44;100062.12;;;23.47;56.85
65666;BME280;52365;47.464;18.976;2023-09-18T00:55:06;100056.06;;;23.27;57.54
65666;BME280;52365;47.464;18.976;2023-09-18T00:55:28;100065.16;;;23.22;57.80
65666;BME280;52365;47.464;18.976;2023-09-18T00:55:53;100056.63;;;23.47;57.37
65666;BME280;52365;47.464;18.976;2023-09-18T00:56:15;100053.59;;;23.58;56.92
65666;BME280;52365;47.464;18.976;2023-09-18T00:56:38;100054.97;;;23.65;56.65
65666;BME280;52365;47.464;18.976;2023-09-18T00:56:59;100057.16;;;23.66;56.54
65666;BME280;52365;47.464;18.976;2023-09-18T00:57:20;100052.06;;;23.70;56.42
65666;BME280;52365;47.464;18.976;2023-09-18T00:57:42;100054.63;;;23.68;56.45
65666;BME280;52365;47.464;18.976;2023-09-18T00:57:59;100051.03;;;23.60;56.54
65666;BME280;52365;47.464;18.976;2023-09-18T00:58:20;100053.25;;;23.41;57.12
65666;BME280;52365;47.464;18.976;2023-09-18T00:58:42;100055.91;;;23.12;57.93
65666;BME280;52365;47.464;18.976;2023-09-18T00:59:04;100052.25;;;22.96;58.56
65666;BME280;52365;47.464;18.976;2023-09-18T00:59:25;100050.97;;;22.97;58.73
65666;BME280;52365;47.464;18.976;2023-09-18T00:59:46;100055.66;;;23.23;58.17
65666;BME280;52365;47.464;18.976;2023-09-18T01:00:03;100056.12;;;23.35;57.59
65666;BME280;52365;47.464;18.976;2023-09-18T01:00:28;100051.97;;;23.42;57.40
65666;BME280;52365;47.464;18.976;2023-09-18T01:00:50;100043.84;;;23.57;56.92
65666;BME280;52365;47.464;18.976;2023-09-18T01:01:12;100052.19;;;23.44;57.07
65666;BME280;52365;47.464;18.976;2023-09-18T01:01:38;100053.13;;;23.46;57.06
65666;BME280;52365;47.464;18.976;2023-09-18T01:01:59;100051.13;;;23.47;57.06
65666;BME280;52365;47.464;18.976;2023-09-18T01:02:21;100053.97;;;23.20;57.65
65666;BME280;52365;47.464;18.976;2023-09-18T01:02:42;100052.50;;;23.19;58.04
65666;BME280;52365;47.464;18.976;2023-09-18T01:03:04;100047.59;;;23.25;57.85
65666;BME280;52365;47.464;18.976;2023-09-18T01:03:21;100051.97;;;23.21;57.83
65666;BME280;52365;47.464;18.976;2023-09-18T01:03:43;100045.13;;;23.35;57.58
65666;BME280;52365;47.464;18.976;2023-09-18T01:04:04;100041.31;;;23.59;56.94
65666;BME280;52365;47.464;18.976;2023-09-18T01:04:26;100052.50;;;23.61;56.62
65666;BME280;52365;47.464;18.976;2023-09-18T01:04:44;100052.78;;;23.50;56.83
65666;BME280;52365;47.464;18.976;2023-09-18T01:05:00;100051.44;;;23.43;57.03
65666;BME280;52365;47.464;18.976;2023-09-18T01:05:21;100049.63;;;23.46;57.04
65666;BME280;52365;47.464;18.976;2023-09-18T01:05:42;100052.41;;;23.46;56.98
65666;BME280;52365;47.464;18.976;2023-09-18T01:06:04;100050.69;;;23.43;57.20
65666;BME280;52365;47.464;18.976;2023-09-18T01:06:25;100053.84;;;23.47;57.09
65666;BME280;52365;47.464;18.976;2023-09-18T01:06:48;100051.59;;;23.58;56.77
65666;BME280;52365;47.464;18.976;2023-09-18T01:07:10;100052.00;;;23.62;56.54
65666;BME280;52365;47.464;18.976;2023-09-18T01:07:31;100043.66;;;23.55;56.69
65666;BME280;52365;47.464;18.976;2023-09-18T01:07:52;100051.50;;;23.51;56.88
65666;BME280;52365;47.464;18.976;2023-09-18T01:08:08;100051.88;;;23.68;56.48
65666;BME280;52365;47.464;18.976;2023-09-18T01:08:29;100047.84;;;23.69;56.36
65666;BME280;52365;47.464;18.976;2023-09-18T01:08:51;100060.44;;;23.44;56.89
65666;BME280;52365;47.464;18.976;2023-09-18T01:09:17;100050.00;;;23.08;57.98
65666;BME280;52365;47.464;18.976;2023-09-18T01:09:39;100051.66;;;22.63;59.33
65666;BME280;52365;47.464;18.976;2023-09-18T01:10:00;100051.22;;;22.59;59.88
65666;BME280;52365;47.464;18.976;2023-09-18T01:10:16;100050.87;;;22.76;59.56
65666;BME280;52365;47.464;18.976;2023-09-18T01:10:48;100049.84;;;22.93;59.11
65666;BME280;52365;47.464;18.976;2023-09-18T01:11:26;100056.19;;;23.22;58.29
65666;BME280;52365;47.464;18.976;2023-09-18T01:12:45;100052.78;;;23.50;57.12
65666;BME280;52365;47.464;18.976;2023-09-18T01:13:15;100053.91;;;23.33;57.26
65666;BME280;52365;47.464;18.976;2023-09-18T01:13:54;100055.62;;;22.89;58.92
65666;BME280;52365;47.464;18.976;2023-09-18T01:14:28;100057.87;;;22.51;60.37
65666;BME280;52365;47.464;18.976;2023-09-18T01:15:07;100051.34;;;22.54;60.37
65666;BME280;52365;47.464;18.976;2023-09-18T01:15:35;100052.59;;;22.66;59.87
65666;BME280;52365;47.464;18.976;2023-09-18T01:16:07;100048.16;;;22.63;59.82
65666;BME280;52365;47.464;18.976;2023-09-18T01:16:41;100049.84;;;22.93;59.28
65666;BME280;52365;47.464;18.976;2023-09-18T01:17:02;100050.94;;;23.10;58.43
65666;BME280;52365;47.464;18.976;2023-09-18T01:17:26;100052.75;;;23.08;58.39
65666;BME280;52365;47.464;18.976;2023-09-18T01:17:48;100050.00;;;23.08;58.35
65666;BME280;52365;47.464;18.976;2023-09-18T01:18:09;100048.13;;;22.90;58.96
65666;BME280;52365;47.464;18.976;2023-09-18T01:18:30;100053.87;;;23.12;58.44
65666;BME280;52365;47.464;18.976;2023-09-18T01:18:51;100051.41;;;23.22;58.01
65666;BME280;52365;47.464;18.976;2023-09-18T01:19:12;100043.66;;;23.00;58.48
65666;BME280;52365;47.464;18.976;2023-09-18T01:19:41;100043.47;;;22.84;58.91
65666;BME280;52365;47.464;18.976;2023-09-18T01:20:03;100039.34;;;22.78;59.40
65666;BME280;52365;47.464;18.976;2023-09-18T01:20:26;100040.09;;;22.78;59.28
65666;BME280;52365;47.464;18.976;2023-09-18T01:20:48;100045.69;;;22.86;59.21
65666;BME280;52365;47.464;18.976;2023-09-18T01:21:09;100037.03;;;22.82;59.17
65666;BME280;52365;47.464;18.976;2023-09-18T01:21:30;100047.28;;;22.95;58.92
65666;BME280;52365;47.464;18.976;2023-09-18T01:21:46;100034.16;;;23.01;58.70
65666;BME280;52365;47.464;18.976;2023-09-18T01:22:08;100039.00;;;23.08;58.50
65666;BME280;52365;47.464;18.976;2023-09-18T01:22:30;100041.38;;;22.91;58.77
65666;BME280;52365;47.464;18.976;2023-09-18T01:22:51;100040.87;;;22.66;59.64
65666;BME280;52365;47.464;18.976;2023-09-18T01:23:12;100037.69;;;22.75;59.58
65666;BME280;52365;47.464;18.976;2023-09-18T01:23:33;100034.59;;;22.78;59.43
65666;BME280;52365;47.464;18.976;2023-09-18T01:23:54;100034.47;;;22.23;60.74
65666;BME280;52365;47.464;18.976;2023-09-18T01:24:15;100038.97;;;22.21;61.23
65666;BME280;52365;47.464;18.976;2023-09-18T01:24:37;100035.94;;;22.37;61.07
65666;BME280;52365;47.464;18.976;2023-09-18T01:24:59;100036.25;;;22.34;60.75
65666;BME280;52365;47.464;18.976;2023-09-18T01:25:20;100037.63;;;22.27;60.83
65666;BME280;52365;47.464;18.976;2023-09-18T01:25:41;100035.09;;;22.29;60.88
65666;BME280;52365;47.464;18.976;2023-09-18T01:26:02;100036.34;;;22.42;60.72
65666;BME280;52365;47.464;18.976;2023-09-18T01:26:23;100044.81;;;22.57;60.29
65666;BME280;52365;47.464;18.976;2023-09-18T01:26:44;100035.31;;;22.18;61.22
65666;BME280;52365;47.464;18.976;2023-09-18T01:27:10;100043.13;;;22.27;61.26
65666;BME280;52365;47.464;18.976;2023-09-18T01:27:33;100032.97;;;22.35;61.05
65666;BME280;52365;47.464;18.976;2023-09-18T01:27:54;100036.16;;;22.26;61.19
65666;BME280;52365;47.464;18.976;2023-09-18T01:28:15;100040.47;;;22.35;61.05
65666;BME280;52365;47.464;18.976;2023-09-18T01:28:37;100039.75;;;22.34;60.87
65666;BME280;52365;47.464;18.976;2023-09-18T01:28:58;100034.34;;;22.29;60.98
65666;BME280;52365;47.464;18.976;2023-09-18T01:29:19;100034.25;;;22.34;61.10
65666;BME280;52365;47.464;18.976;2023-09-18T01:29:40;100044.16;;;22.51;60.63
65666;BME280;52365;47.464;18.976;2023-09-18T01:29:56;100042.47;;;22.61;60.17
65666;BME280;52365;47.464;18.976;2023-09-18T01:30:17;100041.19;;;22.62;60.11
65666;BME280;52365;47.464;18.976;2023-09-18T01:30:39;100044.78;;;22.70;59.77
65666;BME280;52365;47.464;18.976;2023-09-18T01:31:00;100038.25;;;22.47;60.10
65666;BME280;52365;47.464;18.976;2023-09-18T01:31:21;100044.56;;;22.55;60.12
65666;BME280;52365;47.464;18.976;2023-09-18T01:31:42;100036.31;;;22.68;59.86
65666;BME280;52365;47.464;18.976;2023-09-18T01:32:04;100036.94;;;22.87;59.30
65666;BME280;52365;47.464;18.976;2023-09-18T01:32:28;100040.50;;;22.96;58.91
65666;BME280;52365;47.464;18.976;2023-09-18T01:32:46;100044.75;;;22.97;58.74
65666;BME280;52365;47.464;18.976;2023-09-18T01:33:07;100044.94;;;22.85;58.98
65666;BME280;52365;47.464;18.976;2023-09-18T01:33:30;100041.19;;;22.75;59.24
65666;BME280;52365;47.464;18.976;2023-09-18T01:33:52;100036.56;;;22.57;59.81
65666;BME280;52365;47.464;18.976;2023-09-18T01:34:10;100041.41;;;22.37;60.43
65666;BME280;52365;47.464;18.976;2023-09-18T01:34:31;100037.94;;;22.24;60.89
65666;BME280;52365;47.464;18.976;2023-09-18T01:34:56;100046.19;;;22.24;61.01
65666;BME280;52365;47.464;18.976;2023-09-18T01:35:17;100039.91;;;22.10;61.37
65666;BME280;52365;47.464;18.976;2023-09-18T01:35:39;100042.81;;;22.31;61.12
65666;BME280;52365;47.464;18.976;2023-09-18T01:36:01;100035.09;;;22.29;60.97
65666;BME280;52365;47.464;18.976;2023-09-18T01:36:23;100042.69;;;22.23;61.04
65666;BME280;52365;47.464;18.976;2023-09-18T01:36:45;100037.63;;;22.14;61.49
65666;BME280;52365;47.464;18.976;2023-09-18T01:37:07;100041.66;;;22.26;61.15
65666;BME280;52365;47.464;18.976;2023-09-18T01:37:31;100042.88;;;22.38;60.69
65666;BME280;52365;47.464;18.976;2023-09-18T01:37:52;100045.31;;;22.55;60.25
65666;BME280;52365;47.464;18.976;2023-09-18T01:38:14;100042.97;;;22.59;60.04
65666;BME280;52365;47.464;18.976;2023-09-18T01:38:36;100042.88;;;22.52;60.17
65666;BME280;52365;47.464;18.976;2023-09-18T01:38:58;100045.97;;;22.48;60.37
65666;BME280;52365;47.464;18.976;2023-09-18T01:39:20;100045.41;;;22.63;60.04
65666;BME280;52365;47.464;18.976;2023-09-18T01:39:42;100043.41;;;22.63;59.88
65666;BME280;52365;47.464;18.976;2023-09-18T01:40:04;100045.44;;;22.50;60.16
65666;BME280;52365;47.464;18.976;2023-09-18T01:40:27;100044.47;;;22.47;60.31
65666;BME280;52365;47.464;18.976;2023-09-18T01:40:49;100047.56;;;22.44;60.37
65666;BME280;52365;47.464;18.976;2023-09-18T01:41:11;100040.78;;;22.31;60.66
65666;BME280;52365;47.464;18.976;2023-09-18T01:41:32;100050.16;;;22.09;61.28
65666;BME280;52365;47.464;18.976;2023-09-18T01:41:54;100041.66;;;22.40;60.86
65666;BME280;52365;47.464;18.976;2023-09-18T01:42:15;100041.53;;;22.32;60.73
65666;BME280;52365;47.464;18.976;2023-09-18T01:42:37;100040.53;;;22.03;61.61
65666;BME280;52365;47.464;18.976;2023-09-18T01:42:58;100040.09;;;21.99;61.81
65666;BME280;52365;47.464;18.976;2023-09-18T01:43:20;100044.97;;;22.06;61.75
65666;BME280;52365;47.464;18.976;2023-09-18T01:43:41;100042.88;;;22.12;61.70
65666;BME280;52365;47.464;18.976;2023-09-18T01:44:02;100049.22;;;22.20;61.35
65666;BME280;52365;47.464;18.976;2023-09-18T01:44:25;100045.62;;;22.38;61.18
65666;BME280;52365;47.464;18.976;2023-09-18T01:44:41;100048.19;;;22.50;60.57
65666;BME280;52365;47.464;18.976;2023-09-18T01:45:03;100039.31;;;22.57;60.21
65666;BME280;52365;47.464;18.976;2023-09-18T01:45:25;100042.56;;;22.55;60.17
65666;BME280;52365;47.464;18.976;2023-09-18T01:45:47;100046.69;;;22.62;59.95
65666;BME280;52365;47.464;18.976;2023-09-18T01:46:03;100042.97;;;22.59;59.92
65666;BME280;52365;47.464;18.976;2023-09-18T01:46:25;100044.78;;;22.70;59.68
65666;BME280;52365;47.464;18.976;2023-09-18T01:46:47;100051.75;;;22.71;59.58
65666;BME280;52365;47.464;18.976;2023-09-18T01:47:11;100047.53;;;22.70;59.53
65666;BME280;52365;47.464;18.976;2023-09-18T01:47:33;100049.88;;;22.40;60.25
65666;BME280;52365;47.464;18.976;2023-09-18T01:47:55;100040.56;;;22.43;60.51
65666;BME280;52365;47.464;18.976;2023-09-18T01:48:16;100044.37;;;22.40;60.55
65666;BME280;52365;47.464;18.976;2023-09-18T01:48:37;100047.13;;;22.40;60.60
65666;BME280;52365;47.464;18.976;2023-09-18T01:48:58;100047.56;;;22.44;60.46
65666;BME280;52365;47.464;18.976;2023-09-18T01:49:31;100043.53;;;22.31;60.79
65666;BME280;52365;47.464;18.976;2023-09-18T01:49:53;100040.78;;;22.31;60.82
65666;BME280;52365;47.464;18.976;2023-09-18T01:50:30;100044.81;;;22.44;60.45
65666;BME280;52365;47.464;18.976;2023-09-18T01:50:51;100041.84;;;22.28;60.64
65666;BME280;52365;47.464;18.976;2023-09-18T01:51:15;100035.72;;;22.22;61.02
65666;BME280;52365;47.464;18.976;2023-09-18T01:51:32;100041.00;;;22.33;60.76
65666;BME280;52365;47.464;18.976;2023-09-18T01:51:53;100036.34;;;22.42;60.48
65666;BME280;52365;47.464;18.976;2023-09-18T01:52:14;100033.47;;;22.47;60.21
65666;BME280;52365;47.464;18.976;2023-09-18T01:52:46;100037.81;;;22.16;60.92
65666;BME280;52365;47.464;18.976;2023-09-18T01:53:07;100041.09;;;22.15;61.13